Time;durP1;ratioP1;P1;durP2;ratioP2;P2;SDS_P1;SDS_P2;PMS_P1;PMS_P2;Temp;Humidity;BMP_temperature;BMP_pressure;BME280_temperature;BME280_humidity;BME280_pressure;Samples;Min_cycle;Max_cycle;Signal;HPM_P1;HPM_P2
2023/07/21 04:04:17;;;;;;;2.10;2.00;;;16.10;99.90;;;;;;6132717;23;20391;-67
2023/07/21 04:06:43;;;;;;;1.00;1.00;;;16.10;99.90;;;;;;4975131;28;20459;-67
2023/07/21 04:09:12;;;;;;;2.00;1.77;;;16.10;99.90;;;;;;4959530;28;20176;-68
2023/07/21 04:11:37;;;;;;;0.90;0.90;;;16.10;99.90;;;;;;4977107;28;20176;-66
2023/07/21 04:14:03;;;;;;;1.60;1.50;;;16.10;99.90;;;;;;4959078;28;20457;-67
2023/07/21 04:16:30;;;;;;;1.30;1.30;;;16.10;99.90;;;;;;4976967;28;20172;-67
2023/07/21 04:18:56;;;;;;;1.83;1.20;;;16.10;99.90;;;;;;4976960;28;20412;-67
2023/07/21 04:21:22;;;;;;;5.73;1.40;;;16.10;99.90;;;;;;4977505;28;20408;-68
2023/07/21 04:23:48;;;;;;;1.50;1.20;;;16.10;99.90;;;;;;4977495;28;20168;-68
2023/07/21 04:26:15;;;;;;;1.40;1.40;;;16.10;99.90;;;;;;4978590;28;20792;-67
2023/07/21 04:28:41;;;;;;;2.07;1.97;;;16.20;99.90;;;;;;4979657;28;20176;-68
2023/07/21 04:31:10;;;;;;;1.70;1.60;;;16.20;99.90;;;;;;4979298;28;20420;-67
2023/07/21 04:33:37;;;;;;;1.97;1.87;;;16.20;99.90;;;;;;4977380;28;20446;-67
2023/07/21 04:36:04;;;;;;;1.30;1.20;;;16.20;99.90;;;;;;4977493;28;20447;-67
2023/07/21 04:38:30;;;;;;;1.40;1.30;;;16.30;99.90;;;;;;4977189;28;20412;-67
2023/07/21 04:40:55;;;;;;;1.30;1.20;;;16.40;99.90;;;;;;4976778;28;20421;-68
2023/07/21 04:43:21;;;;;;;1.50;1.40;;;16.50;99.90;;;;;;4976494;28;20420;-68
2023/07/21 04:45:47;;;;;;;1.20;0.93;;;16.60;99.90;;;;;;4976654;28;20203;-68
2023/07/21 04:48:12;;;;;;;1.60;1.50;;;16.70;99.90;;;;;;4976869;28;20312;-68
2023/07/21 04:50:42;;;;;;;1.80;1.70;;;16.90;99.90;;;;;;4977094;28;20201;-67
2023/07/21 04:53:08;;;;;;;1.40;1.30;;;17.00;99.90;;;;;;4977542;28;20205;-68
2023/07/21 04:55:34;;;;;;;1.43;1.33;;;17.20;99.90;;;;;;4959287;28;20960;-67
2023/07/21 04:58:01;;;;;;;1.30;1.30;;;17.50;99.90;;;;;;4976759;28;20530;-68
2023/07/21 05:00:27;;;;;;;1.83;1.73;;;17.60;99.90;;;;;;4976752;28;20402;-67
2023/07/21 05:02:53;;;;;;;1.87;1.77;;;17.80;99.90;;;;;;4976367;28;20415;-67
2023/07/21 05:05:19;;;;;;;1.20;1.10;;;17.90;99.90;;;;;;4976008;28;20770;-69
2023/07/21 05:07:44;;;;;;;1.60;1.50;;;18.00;99.90;;;;;;4958816;28;20202;-72
2023/07/21 05:10:10;;;;;;;1.27;1.17;;;18.10;99.90;;;;;;4975316;28;20231;-72
2023/07/21 05:12:36;;;;;;;2.80;1.80;;;18.20;99.90;;;;;;4975868;28;20203;-72
2023/07/21 05:15:01;;;;;;;0.97;0.97;;;18.30;99.50;;;;;;4975669;28;20199;-71
2023/07/21 05:17:27;;;;;;;1.90;1.63;;;18.40;99.30;;;;;;4976007;28;20254;-72
2023/07/21 05:19:53;;;;;;;1.33;1.33;;;18.40;98.80;;;;;;4958470;28;20176;-72
2023/07/21 05:22:19;;;;;;;1.40;1.30;;;18.40;98.60;;;;;;4975858;28;20178;-73
2023/07/21 05:24:45;;;;;;;1.10;1.00;;;18.50;97.90;;;;;;4975316;28;20925;-72
2023/07/21 05:27:11;;;;;;;1.23;1.23;;;18.50;97.60;;;;;;4975607;28;20262;-73
2023/07/21 05:29:36;;;;;;;1.57;1.30;;;18.50;97.50;;;;;;4975650;28;20204;-70
2023/07/21 05:32:03;;;;;;;1.10;0.93;;;18.50;97.70;;;;;;4975591;28;20502;-72
2023/07/21 05:34:32;;;;;;;1.60;1.50;;;18.50;98.40;;;;;;4957766;28;20685;-71
2023/07/21 05:36:58;;;;;;;1.10;1.10;;;18.60;97.90;;;;;;4975594;28;20406;-70
2023/07/21 05:39:26;;;;;;;1.13;1.03;;;18.70;98.00;;;;;;4975505;28;20913;-71
2023/07/21 05:41:55;;;;;;;1.70;1.60;;;18.80;97.50;;;;;;4975531;28;20391;-71
2023/07/21 05:44:20;;;;;;;1.33;1.20;;;18.80;97.20;;;;;;4957666;28;20427;-71
2023/07/21 05:46:46;;;;;;;1.83;1.73;;;18.90;97.20;;;;;;4975203;28;20410;-71
2023/07/21 05:49:14;;;;;;;1.60;1.50;;;19.10;96.80;;;;;;4975301;28;20187;-72
2023/07/21 05:51:39;;;;;;;1.53;1.23;;;19.20;96.30;;;;;;4973895;28;20176;-71
2023/07/21 05:54:07;;;;;;;1.27;1.23;;;19.20;95.70;;;;;;4974779;28;20445;-71
2023/07/21 05:56:32;;;;;;;1.80;1.70;;;19.40;95.90;;;;;;4975231;28;20204;-71
2023/07/21 05:58:58;;;;;;;1.20;1.10;;;19.60;95.60;;;;;;4975189;28;20815;-71
2023/07/21 06:01:24;;;;;;;3.10;2.10;;;19.80;95.40;;;;;;4974870;28;20207;-72
2023/07/21 06:03:49;;;;;;;1.50;1.40;;;20.00;94.70;;;;;;4974980;28;20638;-71
2023/07/21 06:06:15;;;;;;;2.90;1.57;;;20.10;94.20;;;;;;4974597;28;20433;-72
2023/07/21 06:08:41;;;;;;;1.50;1.40;;;20.20;93.80;;;;;;4974927;28;20180;-72
2023/07/21 06:11:06;;;;;;;1.47;1.10;;;20.30;93.60;;;;;;4974887;28;20263;-71
2023/07/21 06:13:33;;;;;;;2.40;1.60;;;20.40;93.50;;;;;;4974349;28;20211;-72
2023/07/21 06:15:58;;;;;;;2.20;1.40;;;20.40;93.60;;;;;;4974775;28;20296;-71
2023/07/21 06:18:24;;;;;;;1.80;1.00;;;20.50;93.40;;;;;;4974349;28;20905;-70
2023/07/21 06:20:53;;;;;;;1.33;1.20;;;20.70;93.20;;;;;;4974743;28;20177;-70
2023/07/21 06:23:19;;;;;;;2.23;1.70;;;20.90;92.30;;;;;;4974687;28;20213;-72
2023/07/21 06:25:45;;;;;;;1.40;1.30;;;21.10;91.80;;;;;;4974461;28;20925;-70
2023/07/21 06:28:12;;;;;;;1.50;1.40;;;21.30;91.60;;;;;;4974659;28;20423;-70
2023/07/21 06:30:38;;;;;;;1.27;1.17;;;21.50;91.30;;;;;;4957258;28;20400;-71
2023/07/21 06:33:06;;;;;;;1.80;1.70;;;21.80;91.20;;;;;;4974583;28;20444;-70
2023/07/21 06:35:33;;;;;;;1.20;1.10;;;21.90;90.80;;;;;;4973009;28;20204;-70
2023/07/21 06:37:59;;;;;;;1.30;1.20;;;22.00;90.40;;;;;;4974675;28;20518;-70
2023/07/21 06:40:25;;;;;;;1.67;1.00;;;22.10;90.50;;;;;;4974721;28;20393;-69
2023/07/21 06:42:51;;;;;;;1.27;1.27;;;22.30;90.20;;;;;;4957219;28;20393;-71
2023/07/21 06:45:16;;;;;;;1.70;1.60;;;22.40;90.10;;;;;;4974046;28;20287;-71
2023/07/21 06:47:42;;;;;;;1.70;1.37;;;22.50;89.00;;;;;;4974532;28;20210;-70
2023/07/21 06:50:08;;;;;;;1.70;1.60;;;22.70;88.50;;;;;;4974672;28;20263;-70
2023/07/21 06:52:34;;;;;;;1.20;1.20;;;22.90;86.80;;;;;;4974526;28;20219;-70
2023/07/21 06:55:00;;;;;;;1.80;1.70;;;23.10;86.40;;;;;;4973888;28;20406;-70
2023/07/21 06:57:26;;;;;;;2.50;1.37;;;23.20;86.50;;;;;;4974313;28;20504;-71
2023/07/21 06:59:52;;;;;;;2.10;1.30;;;23.30;86.30;;;;;;4974859;28;20498;-70
2023/07/21 07:02:20;;;;;;;1.60;1.47;;;23.40;85.90;;;;;;4956810;28;20184;-72
2023/07/21 07:04:48;;;;;;;1.83;1.67;;;23.60;85.10;;;;;;4974075;28;20235;-69
2023/07/21 07:07:14;;;;;;;2.10;1.90;;;23.80;85.20;;;;;;4974338;28;20406;-70
2023/07/21 07:09:41;;;;;;;2.10;1.53;;;23.90;84.70;;;;;;4974245;28;20410;-70
2023/07/21 07:12:08;;;;;;;1.43;1.33;;;23.90;82.50;;;;;;4974028;28;20397;-70
2023/07/21 07:14:34;;;;;;;1.30;1.30;;;24.00;82.10;;;;;;4974024;28;20753;-73
2023/07/21 07:16:59;;;;;;;1.30;1.20;;;24.30;82.10;;;;;;4974088;28;20400;-74
2023/07/21 07:19:25;;;;;;;1.20;1.20;;;24.60;78.00;;;;;;4957638;28;20560;-65
2023/07/21 07:21:50;;;;;;;1.97;1.83;;;24.80;78.50;;;;;;4973902;28;20543;-66
2023/07/21 07:24:16;;;;;;;2.63;2.10;;;24.80;78.80;;;;;;4973458;28;20227;-64
2023/07/21 07:26:42;;;;;;;2.07;1.77;;;24.70;77.90;;;;;;4971542;28;20650;-66
2023/07/21 07:29:07;;;;;;;2.70;1.90;;;24.40;77.30;;;;;;4956181;28;20190;-65
2023/07/21 07:31:36;;;;;;;2.10;1.83;;;24.20;78.90;;;;;;4973525;28;20578;-66
2023/07/21 07:34:03;;;;;;;1.37;1.27;;;24.00;78.80;;;;;;4975390;28;20211;-65
2023/07/21 07:36:29;;;;;;;1.40;1.30;;;24.00;79.50;;;;;;4977612;28;20420;-65
2023/07/21 07:38:54;;;;;;;1.73;1.63;;;24.20;80.30;;;;;;4977542;28;20876;-65
2023/07/21 07:41:20;;;;;;;3.73;1.93;;;24.80;80.60;;;;;;4960105;28;20179;-66
2023/07/21 07:43:46;;;;;;;2.83;1.53;;;25.60;78.10;;;;;;4977550;28;20609;-66
2023/07/21 07:46:12;;;;;;;1.30;1.23;;;26.70;74.20;;;;;;4977637;28;20425;-65
2023/07/21 07:48:38;;;;;;;1.93;1.80;;;27.00;68.40;;;;;;4977493;28;20541;-65
2023/07/21 07:51:05;;;;;;;1.43;1.33;;;27.10;68.50;;;;;;4977480;28;20290;-65
2023/07/21 07:53:32;;;;;;;1.40;1.30;;;27.10;69.10;;;;;;4977014;28;20454;-65
2023/07/21 07:55:58;;;;;;;1.47;1.37;;;27.50;68.00;;;;;;4977231;28;20431;-65
2023/07/21 07:58:24;;;;;;;1.43;1.27;;;28.10;67.00;;;;;;4977293;28;20403;-67
2023/07/21 08:00:54;;;;;;;1.17;1.07;;;28.60;66.00;;;;;;4977402;28;20180;-65
2023/07/21 08:03:20;;;;;;;1.50;1.40;;;29.20;65.00;;;;;;4977260;28;20456;-66
2023/07/21 08:05:47;;;;;;;1.37;1.27;;;29.50;62.10;;;;;;4976890;28;20435;-65
2023/07/21 08:08:13;;;;;;;2.70;2.50;;;29.50;60.20;;;;;;4977247;28;20553;-65
2023/07/21 08:10:40;;;;;;;1.40;1.30;;;29.60;61.00;;;;;;4977078;28;20396;-63
2023/07/21 08:13:07;;;;;;;1.60;1.50;;;29.60;59.70;;;;;;4976928;28;20208;-65
2023/07/21 08:15:33;;;;;;;3.90;2.07;;;29.30;59.10;;;;;;4976630;28;20418;-64
2023/07/21 08:17:58;;;;;;;1.40;1.30;;;29.40;59.80;;;;;;4977198;28;20506;-64
2023/07/21 08:20:24;;;;;;;1.60;1.50;;;29.60;62.40;;;;;;4977122;28;20183;-65
2023/07/21 08:22:50;;;;;;;1.63;1.53;;;30.20;60.00;;;;;;4959654;28;20176;-64
2023/07/21 08:25:17;;;;;;;1.40;1.30;;;30.60;59.60;;;;;;4976644;28;20210;-64
2023/07/21 08:27:43;;;;;;;1.63;1.53;;;31.20;57.70;;;;;;4976993;28;20839;-64
2023/07/21 08:30:09;;;;;;;2.20;2.00;;;31.20;57.80;;;;;;4976845;28;20440;-65
2023/07/21 08:32:40;;;;;;;1.50;1.40;;;31.60;57.60;;;;;;4976773;28;20233;-65
2023/07/21 08:35:07;;;;;;;1.67;1.57;;;32.30;55.70;;;;;;4976316;28;20845;-65
2023/07/21 08:37:33;;;;;;;1.20;1.20;;;33.10;55.60;;;;;;4976727;28;20408;-65
2023/07/21 08:39:59;;;;;;;1.57;1.47;;;33.60;53.50;;;;;;4976479;28;20839;-65
2023/07/21 08:42:25;;;;;;;1.80;1.70;;;33.20;52.60;;;;;;4976647;28;20419;-65
2023/07/21 08:44:53;;;;;;;1.30;1.30;;;32.60;52.30;;;;;;4975016;28;20914;-65
2023/07/21 08:47:20;;;;;;;1.37;1.23;;;31.90;53.10;;;;;;4971092;28;20431;-66
2023/07/21 08:49:46;;;;;;;1.50;1.40;;;31.20;54.30;;;;;;4957224;28;20435;-65
2023/07/21 08:52:12;;;;;;;1.40;1.30;;;30.50;54.60;;;;;;4956785;29;20448;-65
2023/07/21 08:54:38;;;;;;;1.30;1.20;;;29.70;55.60;;;;;;4958999;28;20542;-66
2023/07/21 08:57:04;;;;;;;1.40;1.30;;;29.60;57.50;;;;;;4966106;28;20338;-65
2023/07/21 08:59:29;;;;;;;1.70;1.30;;;29.80;56.40;;;;;;4975999;28;20184;-64
2023/07/21 09:01:55;;;;;;;1.40;1.30;;;29.50;56.30;;;;;;4976351;28;20894;-66
2023/07/21 09:04:23;;;;;;;0.83;0.83;;;29.60;57.00;;;;;;4975730;28;20171;-68
2023/07/21 09:06:50;;;;;;;1.80;1.70;;;30.20;56.80;;;;;;4975913;28;20223;-67
2023/07/21 09:09:23;;;;;;;2.23;1.70;;;30.90;55.40;;;;;;4960559;28;20427;-68
2023/07/21 09:11:50;;;;;;;1.03;0.97;;;31.60;55.50;;;;;;4975604;28;20428;-66
2023/07/21 09:14:16;;;;;;;1.37;1.27;;;32.50;54.90;;;;;;4975340;28;20495;-66
2023/07/21 09:16:45;;;;;;;1.13;1.03;;;33.40;53.50;;;;;;4975848;28;20778;-67
2023/07/21 09:19:11;;;;;;;1.53;1.43;;;33.70;53.20;;;;;;4957590;28;20487;-65
2023/07/21 09:21:37;;;;;;;1.20;1.20;;;34.20;52.80;;;;;;4956421;29;20429;-66
2023/07/21 09:24:05;;;;;;;1.30;1.23;;;34.70;50.90;;;;;;4956210;29;20419;-66
2023/07/21 09:26:31;;;;;;;1.60;1.50;;;35.30;50.40;;;;;;4961592;28;20188;-66
2023/07/21 09:28:57;;;;;;;1.07;1.07;;;36.00;49.90;;;;;;4975475;28;20412;-63
2023/07/21 09:31:29;;;;;;;1.40;1.30;;;36.80;47.60;;;;;;4975638;28;20422;-65
2023/07/21 09:34:05;;;;;;;1.00;1.00;;;37.00;46.70;;;;;;4975282;28;20207;-64
2023/07/21 09:36:30;;;;;;;1.20;1.10;;;36.80;45.40;;;;;;4970237;28;20456;-67
2023/07/21 09:38:57;;;;;;;1.20;1.20;;;36.60;45.20;;;;;;4956288;29;20455;-65
2023/07/21 09:41:26;;;;;;;1.10;1.10;;;36.40;45.10;;;;;;4956066;29;20188;-65
2023/07/21 09:43:53;;;;;;;1.13;1.10;;;36.40;44.90;;;;;;4955712;29;20463;-67
2023/07/21 09:46:19;;;;;;;1.20;1.20;;;36.70;46.50;;;;;;4959138;28;20471;-65
2023/07/21 09:48:47;;;;;;;1.17;1.17;;;36.90;44.40;;;;;;4975529;28;20890;-67
2023/07/21 09:51:12;;;;;;;1.27;1.27;;;36.80;44.40;;;;;;4975338;28;20411;-67
2023/07/21 09:53:45;;;;;;;1.30;1.30;;;37.20;44.50;;;;;;4974760;28;20420;-67
2023/07/21 09:56:13;;;;;;;1.30;1.30;;;37.40;44.80;;;;;;4972476;28;20200;-66
2023/07/21 09:58:51;;;;;;;1.17;1.17;;;37.30;45.20;;;;;;4973496;28;20442;-64
2023/07/21 10:01:17;;;;;;;1.40;1.40;;;37.20;43.90;;;;;;4975107;28;20524;-66
2023/07/21 10:03:44;;;;;;;1.03;1.03;;;37.50;43.30;;;;;;4974667;28;20488;-66
2023/07/21 10:06:10;;;;;;;1.50;1.50;;;37.70;44.30;;;;;;4972915;28;20453;-65
2023/07/21 10:08:36;;;;;;;2.07;1.53;;;38.10;43.40;;;;;;4967004;28;20910;-66
2023/07/21 10:11:04;;;;;;;1.57;1.47;;;38.00;41.50;;;;;;4955416;28;20181;-66
2023/07/21 10:13:32;;;;;;;1.57;1.47;;;37.50;42.30;;;;;;4955074;28;20471;-64
2023/07/21 10:16:11;;;;;;;1.10;1.10;;;37.00;43.20;;;;;;4955902;28;20468;-65
2023/07/21 10:19:03;;;;;;;1.47;1.37;;;36.40;43.30;;;;;;4938843;29;20431;-64
2023/07/21 10:21:46;;;;;;;1.40;1.30;;;35.90;44.00;;;;;;4955395;28;20523;-66
2023/07/21 10:24:22;;;;;;;1.43;1.33;;;35.40;44.90;;;;;;4955122;28;20468;-64
2023/07/21 10:26:56;;;;;;;1.30;1.30;;;35.30;43.80;;;;;;4955513;28;20424;-64
2023/07/21 10:29:21;;;;;;;1.30;1.23;;;34.60;44.30;;;;;;4969019;28;20419;-66
2023/07/21 10:31:52;;;;;;;1.00;1.00;;;33.90;46.50;;;;;;4974566;28;20462;-65
2023/07/21 10:34:17;;;;;;;1.53;1.43;;;33.40;46.50;;;;;;4974254;28;20199;-64
2023/07/21 10:36:52;;;;;;;1.30;1.20;;;33.20;45.80;;;;;;4973988;28;20423;-66
2023/07/21 10:39:24;;;;;;;1.10;1.10;;;32.70;47.00;;;;;;4974597;28;20179;-66
2023/07/21 10:41:51;;;;;;;1.43;1.33;;;32.30;48.10;;;;;;4974543;28;20430;-64
2023/07/21 10:44:18;;;;;;;1.50;1.50;;;32.10;48.40;;;;;;4973979;28;20455;-64
2023/07/21 10:46:46;;;;;;;1.00;1.00;;;31.60;48.00;;;;;;4968862;28;20395;-65
2023/07/21 10:49:14;;;;;;;1.13;1.10;;;31.70;48.40;;;;;;4963137;28;20436;-65
2023/07/21 10:51:44;;;;;;;1.00;1.00;;;32.00;49.50;;;;;;4974448;28;20387;-65
2023/07/21 10:54:11;;;;;;;1.40;1.30;;;32.40;49.00;;;;;;4974041;28;20379;-67
2023/07/21 10:56:45;;;;;;;1.37;1.27;;;32.50;46.40;;;;;;4974222;28;20394;-65
2023/07/21 10:59:11;;;;;;;1.03;1.03;;;32.80;46.10;;;;;;4967001;28;20440;-66
2023/07/21 11:01:45;;;;;;;1.40;1.30;;;33.40;45.90;;;;;;4954900;29;20764;-63
2023/07/21 11:04:16;;;;;;;1.17;1.17;;;33.30;45.90;;;;;;4954494;28;20487;-64
2023/07/21 11:06:43;;;;;;;1.03;1.03;;;33.30;47.00;;;;;;4954841;29;20447;-64
2023/07/21 11:09:11;;;;;;;1.40;1.30;;;33.00;45.40;;;;;;4957342;28;20490;-65
2023/07/21 11:11:41;;;;;;;0.83;0.83;;;33.20;45.60;;;;;;4958524;28;20428;-64
2023/07/21 11:14:18;;;;;;;1.10;1.10;;;32.70;46.50;;;;;;4958632;28;20512;-65
2023/07/21 11:16:45;;;;;;;1.03;1.03;;;32.60;47.10;;;;;;4958364;29;20491;-64
2023/07/21 11:19:11;;;;;;;1.27;1.23;;;32.70;48.20;;;;;;4964888;28;20431;-64
2023/07/21 11:21:38;;;;;;;1.80;1.17;;;32.80;48.50;;;;;;4976918;28;20462;-64
2023/07/21 11:24:04;;;;;;;1.53;1.40;;;32.60;48.50;;;;;;4976334;28;20196;-63
2023/07/21 11:26:30;;;;;;;1.20;1.10;;;32.00;46.50;;;;;;4976288;28;20419;-66
2023/07/21 11:28:59;;;;;;;1.30;0.97;;;31.40;48.30;;;;;;4973801;28;20399;-64
2023/07/21 11:31:25;;;;;;;1.27;1.17;;;30.70;48.20;;;;;;4958258;29;20203;-64
2023/07/21 11:33:51;;;;;;;1.50;1.43;;;30.10;49.60;;;;;;4957836;29;20443;-65
2023/07/21 11:36:22;;;;;;;1.37;1.27;;;29.80;49.70;;;;;;4958265;29;20874;-66
2023/07/21 11:38:59;;;;;;;1.10;1.10;;;29.50;50.50;;;;;;4973367;28;20187;-66
2023/07/21 11:41:40;;;;;;;2.37;1.43;;;29.40;51.50;;;;;;4977435;28;20385;-66
2023/07/21 11:44:11;;;;;;;1.20;1.20;;;29.30;51.40;;;;;;4976880;28;20469;-65
2023/07/21 11:46:37;;;;;;;1.73;1.63;;;29.10;51.10;;;;;;4977150;28;20429;-66
2023/07/21 11:49:14;;;;;;;1.00;1.00;;;29.10;51.50;;;;;;4959528;28;20403;-66
2023/07/21 11:51:59;;;;;;;1.70;1.60;;;29.00;52.10;;;;;;4958009;28;20928;-67
2023/07/21 11:54:30;;;;;;;1.20;1.10;;;28.70;51.90;;;;;;4957637;29;20432;-67
2023/07/21 11:56:57;;;;;;;1.30;0.93;;;28.50;51.40;;;;;;4957951;28;20897;-68
2023/07/21 11:59:24;;;;;;;1.40;1.30;;;28.30;52.70;;;;;;4958259;28;20429;-67
2023/07/21 12:01:50;;;;;;;1.70;1.60;;;28.10;53.20;;;;;;4958698;29;20447;-66
2023/07/21 12:04:18;;;;;;;1.17;1.07;;;28.00;53.20;;;;;;4940311;29;20442;-66
2023/07/21 12:06:44;;;;;;;0.80;0.80;;;27.80;53.30;;;;;;4958469;28;20428;-74
2023/07/21 12:09:12;;;;;;;1.30;1.07;;;27.50;53.40;;;;;;4959326;28;20923;-74
2023/07/21 12:11:38;;;;;;;1.50;1.10;;;27.30;54.10;;;;;;4960597;29;20192;-75
2023/07/21 12:14:04;;;;;;;1.43;1.30;;;27.00;53.80;;;;;;4952007;28;20427;-73
2023/07/21 12:16:32;;;;;;;0.90;0.90;;;26.70;53.90;;;;;;4978075;28;20553;-73
2023/07/21 12:18:58;;;;;;;1.10;1.10;;;26.50;53.70;;;;;;4977193;28;20450;-69
2023/07/21 12:21:24;;;;;;;0.87;0.87;;;26.30;54.00;;;;;;4976897;28;20792;-73
2023/07/21 12:23:50;;;;;;;1.50;1.40;;;26.30;54.20;;;;;;4967265;28;20676;-72
2023/07/21 12:26:17;;;;;;;1.30;0.83;;;26.30;56.30;;;;;;4953389;28;20420;-72
2023/07/21 12:28:44;;;;;;;1.33;1.23;;;26.30;57.20;;;;;;4976423;28;20182;-72
2023/07/21 12:31:11;;;;;;;1.10;1.00;;;26.30;57.00;;;;;;4976793;28;20416;-69
2023/07/21 12:33:39;;;;;;;1.03;1.03;;;26.30;56.40;;;;;;4968969;28;20826;-69
2023/07/21 12:36:05;;;;;;;1.20;1.20;;;26.30;56.30;;;;;;4957237;29;20448;-68
2023/07/21 12:38:31;;;;;;;1.77;1.67;;;26.30;56.80;;;;;;4940147;29;20417;-70
2023/07/21 12:40:56;;;;;;;1.20;1.20;;;26.30;56.30;;;;;;4957311;29;20715;-72
2023/07/21 12:43:22;;;;;;;3.40;1.00;;;26.30;56.90;;;;;;4956875;28;20439;-71
2023/07/21 12:45:48;;;;;;;0.90;0.90;;;26.30;56.40;;;;;;4956799;29;20321;-71
2023/07/21 12:48:14;;;;;;;1.40;1.30;;;26.30;57.00;;;;;;4962246;28;20247;-72
2023/07/21 12:50:40;;;;;;;1.23;1.23;;;26.40;57.20;;;;;;4976655;28;20178;-71
2023/07/21 12:53:06;;;;;;;1.27;1.10;;;26.30;56.70;;;;;;4976435;28;20428;-71
2023/07/21 12:55:32;;;;;;;1.30;1.23;;;26.30;56.70;;;;;;4975879;28;20438;-71
2023/07/21 12:57:57;;;;;;;1.37;1.00;;;26.20;57.50;;;;;;4972908;28;20187;-70
2023/07/21 13:00:23;;;;;;;1.50;1.10;;;26.10;57.30;;;;;;4956946;28;20204;-71
2023/07/21 13:02:48;;;;;;;1.50;1.40;;;26.10;57.80;;;;;;4956690;28;20200;-71
2023/07/21 13:05:14;;;;;;;1.40;1.30;;;26.10;58.00;;;;;;4939154;29;20281;-71
2023/07/21 13:07:40;;;;;;;0.87;0.87;;;26.10;58.10;;;;;;4957340;28;20200;-72
2023/07/21 13:10:07;;;;;;;0.80;0.80;;;26.10;58.10;;;;;;4976225;28;20187;-72
2023/07/21 13:12:33;;;;;;;1.17;1.07;;;26.00;58.30;;;;;;4975871;28;20168;-70
2023/07/21 13:14:58;;;;;;;1.20;1.10;;;26.10;58.90;;;;;;4975398;28;20559;-71
2023/07/21 13:17:24;;;;;;;0.70;0.70;;;26.10;59.10;;;;;;4975917;28;20839;-71
2023/07/21 13:19:50;;;;;;;1.13;1.03;;;26.00;59.10;;;;;;4958763;28;20261;-71
2023/07/21 13:22:16;;;;;;;1.50;1.40;;;26.00;58.80;;;;;;4939273;29;20183;-71
2023/07/21 13:24:41;;;;;;;1.33;1.23;;;26.10;59.00;;;;;;4938700;29;20225;-72
2023/07/21 13:27:07;;;;;;;1.03;1.03;;;26.10;59.20;;;;;;4939122;29;20181;-72
2023/07/21 13:29:34;;;;;;;2.53;1.20;;;26.10;59.70;;;;;;4956797;28;20691;-71
2023/07/21 13:31:59;;;;;;;1.30;1.20;;;26.00;59.50;;;;;;4955789;28;20277;-71
2023/07/21 13:34:25;;;;;;;1.40;1.30;;;25.90;59.60;;;;;;4956055;28;20976;-71
2023/07/21 13:36:51;;;;;;;4.60;1.37;;;25.60;59.70;;;;;;4956442;29;20694;-71
2023/07/21 13:39:17;;;;;;;1.97;1.87;;;25.40;60.70;;;;;;4956161;28;20395;-71
2023/07/21 13:41:43;;;;;;;1.30;1.20;;;25.20;60.90;;;;;;4956036;29;20616;-71
2023/07/21 13:44:08;;;;;;;2.57;0.90;;;25.10;61.20;;;;;;4955491;28;20284;-72
2023/07/21 13:46:34;;;;;;;1.10;1.00;;;24.90;62.90;;;;;;4956020;28;20477;-71
2023/07/21 13:49:00;;;;;;;1.40;1.30;;;24.90;64.30;;;;;;4965346;28;20179;-71
2023/07/21 13:51:25;;;;;;;2.60;1.30;;;24.90;65.30;;;;;;4975586;28;20172;-72
2023/07/21 13:53:51;;;;;;;1.20;1.13;;;25.10;65.80;;;;;;4974963;28;20666;-74
2023/07/21 13:56:17;;;;;;;1.00;0.90;;;25.10;64.50;;;;;;4973997;28;20287;-72
2023/07/21 13:58:43;;;;;;;1.10;1.10;;;25.00;65.00;;;;;;4965843;28;20176;-73
2023/07/21 14:01:09;;;;;;;1.03;0.93;;;24.90;65.50;;;;;;4980806;28;20480;-71
2023/07/21 14:03:35;;;;;;;0.90;0.90;;;24.70;66.70;;;;;;4974935;28;20235;-73
2023/07/21 14:06:01;;;;;;;5.93;1.40;;;24.40;66.30;;;;;;4941554;28;20494;-72
2023/07/21 14:08:27;;;;;;;1.60;0.90;;;24.10;67.40;;;;;;4953392;29;20490;-73
2023/07/21 14:10:52;;;;;;;0.90;0.90;;;23.70;67.50;;;;;;4955830;28;20794;-71
2023/07/21 14:13:18;;;;;;;2.40;1.03;;;23.40;69.10;;;;;;4955518;29;20519;-73
2023/07/21 14:15:44;;;;;;;1.00;1.00;;;23.00;70.60;;;;;;4955331;28;20207;-71
2023/07/21 14:18:11;;;;;;;1.07;1.00;;;22.60;71.70;;;;;;4957307;28;20184;-71
2023/07/21 14:20:37;;;;;;;0.70;0.70;;;22.20;72.90;;;;;;4974541;28;20989;-71
2023/07/21 14:23:03;;;;;;;0.90;0.90;;;22.00;74.50;;;;;;4974577;28;20517;-73
2023/07/21 14:25:28;;;;;;;0.70;0.70;;;21.80;74.70;;;;;;4974205;28;20279;-71
2023/07/21 14:27:54;;;;;;;1.07;0.97;;;21.50;76.30;;;;;;4974047;28;20189;-73
2023/07/21 14:30:20;;;;;;;0.80;0.80;;;21.20;81.00;;;;;;4974680;28;20180;-72
2023/07/21 14:32:46;;;;;;;0.93;0.93;;;20.90;83.90;;;;;;4974554;28;20211;-71
2023/07/21 14:35:12;;;;;;;1.10;1.00;;;20.70;86.00;;;;;;4956774;28;20662;-72
2023/07/21 14:37:37;;;;;;;1.00;0.90;;;20.50;89.20;;;;;;4957141;28;20382;-74
2023/07/21 14:40:10;;;;;;;0.77;0.77;;;20.40;90.10;;;;;;4973188;28;20184;-71
2023/07/21 14:42:43;;;;;;;0.70;0.70;;;20.30;90.60;;;;;;4973566;28;20239;-73
2023/07/21 14:45:10;;;;;;;1.07;0.97;;;20.30;91.10;;;;;;4973955;28;20441;-72
2023/07/21 14:47:36;;;;;;;1.40;0.90;;;20.10;91.60;;;;;;4967815;28;20387;-72
2023/07/21 14:50:01;;;;;;;3.30;1.03;;;19.90;92.40;;;;;;4973521;28;20876;-72
2023/07/21 14:52:28;;;;;;;1.00;0.80;;;19.80;94.10;;;;;;4974065;28;20408;-72
2023/07/21 14:54:54;;;;;;;1.63;1.30;;;19.70;96.60;;;;;;4960205;28;20327;-72
2023/07/21 14:57:20;;;;;;;1.10;1.10;;;19.50;99.90;;;;;;4955109;28;20887;-74
2023/07/21 14:59:45;;;;;;;1.67;1.40;;;19.20;99.90;;;;;;4957928;28;20180;-71
2023/07/21 15:02:13;;;;;;;2.40;1.00;;;18.90;99.90;;;;;;4974352;28;20251;-72
2023/07/21 15:04:39;;;;;;;2.03;1.60;;;18.50;99.90;;;;;;4968330;28;20253;-73
2023/07/21 15:07:06;;;;;;;0.90;0.87;;;18.20;99.90;;;;;;4974074;28;20513;-72
2023/07/21 15:09:32;;;;;;;1.50;1.33;;;17.90;99.90;;;;;;4972558;28;20404;-72
2023/07/21 15:11:58;;;;;;;1.40;1.20;;;17.60;99.90;;;;;;4974339;28;20736;-73
2023/07/21 15:14:24;;;;;;;1.77;1.67;;;17.40;99.90;;;;;;4962860;28;20446;-74
2023/07/21 15:16:51;;;;;;;2.07;1.97;;;17.20;99.90;;;;;;4954708;29;20167;-72
2023/07/21 15:19:20;;;;;;;1.10;1.00;;;17.10;99.90;;;;;;4954932;28;20677;-74
2023/07/21 15:21:45;;;;;;;2.90;1.60;;;17.10;99.90;;;;;;4955602;28;20449;-72
2023/07/21 15:24:11;;;;;;;1.67;1.57;;;17.10;99.90;;;;;;4961003;28;20425;-72
2023/07/21 15:26:38;;;;;;;2.50;2.30;;;17.20;99.90;;;;;;4974224;28;20174;-75
2023/07/21 15:29:08;;;;;;;1.43;1.33;;;17.20;99.90;;;;;;4973778;28;20496;-74
2023/07/21 15:31:39;;;;;;;1.40;1.33;;;17.20;99.90;;;;;;4960775;28;20797;-75
2023/07/21 15:34:05;;;;;;;1.70;1.47;;;17.30;99.90;;;;;;4954417;28;20452;-74
2023/07/21 15:36:31;;;;;;;1.40;1.30;;;17.30;99.90;;;;;;4954965;29;20422;-72
2023/07/21 15:38:57;;;;;;;1.60;1.50;;;17.30;99.90;;;;;;4954660;29;20442;-75
2023/07/21 15:41:23;;;;;;;2.33;1.90;;;17.40;99.90;;;;;;4937558;29;20260;-73
2023/07/21 15:43:48;;;;;;;5.90;3.90;;;17.50;99.90;;;;;;4938286;28;20185;-72
2023/07/21 15:46:14;;;;;;;9.00;6.37;;;17.50;99.90;;;;;;4974074;28;20194;-73
2023/07/21 15:48:39;;;;;;;4.13;3.80;;;17.60;99.90;;;;;;4974120;28;20534;-73
2023/07/21 15:51:05;;;;;;;6.73;4.40;;;17.70;99.90;;;;;;4965936;28;20266;-71
2023/07/21 15:53:31;;;;;;;2.60;2.37;;;17.80;99.90;;;;;;4954592;28;20210;-72
2023/07/21 15:55:56;;;;;;;1.87;1.77;;;17.90;99.90;;;;;;4957960;29;20185;-71
2023/07/21 15:58:22;;;;;;;4.43;3.40;;;17.90;99.90;;;;;;4958140;29;20173;-72
2023/07/21 16:00:59;;;;;;;2.63;2.00;;;18.00;99.90;;;;;;4962240;28;20208;-72
2023/07/21 16:03:27;;;;;;;1.70;1.60;;;18.10;99.90;;;;;;4976840;28;20167;-73
2023/07/21 16:05:57;;;;;;;2.83;2.13;;;18.20;99.90;;;;;;4976976;28;20447;-72
2023/07/21 16:08:25;;;;;;;2.47;2.27;;;18.30;99.90;;;;;;4959867;28;20390;-72
2023/07/21 16:10:51;;;;;;;2.73;2.33;;;18.40;99.90;;;;;;4972245;28;20611;-72
2023/07/21 16:13:17;;;;;;;6.57;4.23;;;18.40;99.90;;;;;;4963275;28;20439;-75
2023/07/21 16:15:48;;;;;;;1.93;1.67;;;18.50;99.90;;;;;;4976757;28;20482;-71
2023/07/21 16:18:14;;;;;;;2.70;2.20;;;18.60;99.90;;;;;;4977144;28;20396;-71
2023/07/21 16:20:42;;;;;;;1.80;1.70;;;18.60;99.90;;;;;;4976696;28;20415;-73
2023/07/21 16:23:12;;;;;;;2.70;1.80;;;18.60;99.90;;;;;;4973273;28;20402;-71
2023/07/21 16:25:37;;;;;;;1.30;1.30;;;18.70;99.90;;;;;;4951405;28;20538;-70
2023/07/21 16:28:03;;;;;;;2.10;1.90;;;18.70;99.90;;;;;;4966289;28;20539;-70
2023/07/21 16:30:29;;;;;;;1.43;1.37;;;18.70;99.90;;;;;;4956370;28;20391;-69
2023/07/21 16:32:55;;;;;;;1.30;1.20;;;18.70;99.90;;;;;;4958271;28;20211;-65
2023/07/21 16:35:21;;;;;;;1.80;1.53;;;18.70;99.90;;;;;;4958813;28;20202;-65
2023/07/21 16:37:47;;;;;;;1.40;1.30;;;18.80;99.90;;;;;;4976597;28;20798;-65
2023/07/21 16:40:14;;;;;;;1.40;1.30;;;18.90;99.90;;;;;;4971701;28;20458;-65
2023/07/21 16:42:40;;;;;;;1.00;1.00;;;19.10;99.90;;;;;;4958107;28;20830;-63
2023/07/21 16:45:08;;;;;;;1.50;1.40;;;19.10;99.90;;;;;;4957603;28;20533;-64
2023/07/21 16:47:34;;;;;;;1.07;1.03;;;19.10;99.90;;;;;;4975787;28;20234;-65
2023/07/21 16:50:03;;;;;;;2.10;1.20;;;19.10;99.90;;;;;;4974936;28;20407;-63